sensor_id;sensor_type;location;lat;lon;timestamp;pressure;altitude;pressure_sealevel;temperature;humidity
77572;BME280;67214;47.454;18.966;2023-03-23T00:02:07;100130.03;;;4.90;74.90
77572;BME280;67214;47.454;18.966;2023-03-23T00:04:34;100124.70;;;4.92;74.88
77572;BME280;67214;47.454;18.966;2023-03-23T00:07:02;100122.34;;;4.94;74.71
77572;BME280;67214;47.454;18.966;2023-03-23T00:09:30;100126.29;;;4.94;74.61
77572;BME280;67214;47.454;18.966;2023-03-23T00:11:59;100115.96;;;4.91;74.64
77572;BME280;67214;47.454;18.966;2023-03-23T00:14:28;100120.64;;;4.93;74.55
77572;BME280;67214;47.454;18.966;2023-03-23T00:16:55;100123.64;;;4.87;74.64
77572;BME280;67214;47.454;18.966;2023-03-23T00:19:22;100118.11;;;4.85;74.75
77572;BME280;67214;47.454;18.966;2023-03-23T00:21:50;100123.44;;;4.83;74.81
77572;BME280;67214;47.454;18.966;2023-03-23T00:24:19;100121.46;;;4.80;74.95
77572;BME280;67214;47.454;18.966;2023-03-23T00:26:48;100116.86;;;4.76;75.07
77572;BME280;67214;47.454;18.966;2023-03-23T00:29:20;100122.57;;;4.76;75.17
77572;BME280;67214;47.454;18.966;2023-03-23T00:31:48;100108.77;;;4.72;75.13
77572;BME280;67214;47.454;18.966;2023-03-23T00:34:19;100113.16;;;4.64;75.15
77572;BME280;67214;47.454;18.966;2023-03-23T00:36:52;100123.14;;;4.58;75.27
77572;BME280;67214;47.454;18.966;2023-03-23T00:39:21;100104.73;;;4.51;75.62
77572;BME280;67214;47.454;18.966;2023-03-23T00:41:51;100106.97;;;4.50;75.56
77572;BME280;67214;47.454;18.966;2023-03-23T00:44:19;100112.94;;;4.45;75.71
77572;BME280;67214;47.454;18.966;2023-03-23T00:46:49;100102.44;;;4.45;75.60
77572;BME280;67214;47.454;18.966;2023-03-23T00:49:19;100111.27;;;4.44;75.71
77572;BME280;67214;47.454;18.966;2023-03-23T00:51:48;100102.08;;;4.44;75.92
77572;BME280;67214;47.454;18.966;2023-03-23T00:54:16;100106.38;;;4.45;75.78
77572;BME280;67214;47.454;18.966;2023-03-23T00:56:43;100103.00;;;4.43;75.80
77572;BME280;67214;47.454;18.966;2023-03-23T00:59:10;100110.11;;;4.41;75.76
77572;BME280;67214;47.454;18.966;2023-03-23T01:01:38;100101.73;;;4.34;75.82
77572;BME280;67214;47.454;18.966;2023-03-23T01:04:06;100104.55;;;4.31;75.91
77572;BME280;67214;47.454;18.966;2023-03-23T01:06:35;100096.35;;;4.29;75.99
77572;BME280;67214;47.454;18.966;2023-03-23T01:09:11;100096.92;;;4.27;76.02
77572;BME280;67214;47.454;18.966;2023-03-23T01:11:34;100092.52;;;4.27;75.99
77572;BME280;67214;47.454;18.966;2023-03-23T01:14:02;100085.95;;;4.27;76.03
77572;BME280;67214;47.454;18.966;2023-03-23T01:16:30;100091.85;;;4.24;76.08
77572;BME280;67214;47.454;18.966;2023-03-23T01:18:57;100085.95;;;4.27;75.84
77572;BME280;67214;47.454;18.966;2023-03-23T01:21:25;100088.37;;;4.23;76.32
77572;BME280;67214;47.454;18.966;2023-03-23T01:23:52;100087.39;;;4.17;76.49
77572;BME280;67214;47.454;18.966;2023-03-23T01:26:23;100080.36;;;4.17;76.21
77572;BME280;67214;47.454;18.966;2023-03-23T01:28:51;100085.15;;;4.18;76.18
77572;BME280;67214;47.454;18.966;2023-03-23T01:31:20;100084.48;;;4.14;76.29
77572;BME280;67214;47.454;18.966;2023-03-23T01:33:49;100080.16;;;4.13;76.22
77572;BME280;67214;47.454;18.966;2023-03-23T01:36:21;100087.64;;;4.12;76.23
77572;BME280;67214;47.454;18.966;2023-03-23T01:38:50;100078.52;;;4.19;76.00
77572;BME280;67214;47.454;18.966;2023-03-23T01:41:19;100075.68;;;4.15;75.84
77572;BME280;67214;47.454;18.966;2023-03-23T01:46:30;100071.61;;;4.10;76.09
77572;BME280;67214;47.454;18.966;2023-03-23T01:49:06;100071.78;;;4.07;76.05
77572;BME280;67214;47.454;18.966;2023-03-23T01:51:30;100073.17;;;4.05;75.95
77572;BME280;67214;47.454;18.966;2023-03-23T01:54:00;100078.28;;;4.00;76.23
77572;BME280;67214;47.454;18.966;2023-03-23T01:56:32;100080.86;;;3.93;76.27
77572;BME280;67214;47.454;18.966;2023-03-23T01:58:59;100075.02;;;3.88;76.53
77572;BME280;67214;47.454;18.966;2023-03-23T02:01:27;100070.33;;;3.86;76.62
77572;BME280;67214;47.454;18.966;2023-03-23T02:03:56;100073.12;;;3.83;76.71
77572;BME280;67214;47.454;18.966;2023-03-23T02:06:24;100065.33;;;3.81;76.82
77572;BME280;67214;47.454;18.966;2023-03-23T02:08:52;100071.04;;;3.81;76.68
77572;BME280;67214;47.454;18.966;2023-03-23T02:11:21;100077.31;;;3.78;76.87
77572;BME280;67214;47.454;18.966;2023-03-23T02:13:50;100071.17;;;3.70;76.77
77572;BME280;67214;47.454;18.966;2023-03-23T02:22:48;100075.46;;;3.71;76.96
77572;BME280;67214;47.454;18.966;2023-03-23T02:34:15;100081.44;;;3.66;76.84
77572;BME280;67214;47.454;18.966;2023-03-23T02:39:03;100081.05;;;3.65;77.02
77572;BME280;67214;47.454;18.966;2023-03-23T02:41:36;100075.02;;;3.63;76.97
77572;BME280;67214;47.454;18.966;2023-03-23T02:44:03;100078.11;;;3.63;77.03
77572;BME280;67214;47.454;18.966;2023-03-23T02:46:32;100080.38;;;3.62;76.90
77572;BME280;67214;47.454;18.966;2023-03-23T02:49:03;100084.66;;;3.63;77.08
77572;BME280;67214;47.454;18.966;2023-03-23T02:51:33;100081.30;;;3.61;76.74
77572;BME280;67214;47.454;18.966;2023-03-23T02:54:02;100082.84;;;3.56;76.83
77572;BME280;67214;47.454;18.966;2023-03-23T02:56:31;100063.81;;;3.53;77.28
77572;BME280;67214;47.454;18.966;2023-03-23T02:59:00;100086.27;;;3.50;77.13
77572;BME280;67214;47.454;18.966;2023-03-23T03:04:10;100087.20;;;3.40;77.13
77572;BME280;67214;47.454;18.966;2023-03-23T03:12:15;100085.19;;;3.45;76.93
77572;BME280;67214;47.454;18.966;2023-03-23T03:14:51;100088.75;;;3.36;77.19
77572;BME280;67214;47.454;18.966;2023-03-23T03:17:23;100087.14;;;3.33;77.13
77572;BME280;67214;47.454;18.966;2023-03-23T03:20:04;100086.98;;;3.27;77.29
77572;BME280;67214;47.454;18.966;2023-03-23T03:22:30;100092.00;;;3.23;77.09
77572;BME280;67214;47.454;18.966;2023-03-23T03:24:58;100096.39;;;3.23;77.39
77572;BME280;67214;47.454;18.966;2023-03-23T03:27:28;100093.48;;;3.20;77.62
77572;BME280;67214;47.454;18.966;2023-03-23T03:29:58;100087.84;;;3.19;77.53
77572;BME280;67214;47.454;18.966;2023-03-23T03:32:43;100097.87;;;3.20;77.45
77572;BME280;67214;47.454;18.966;2023-03-23T03:35:10;100098.95;;;3.24;76.86
77572;BME280;67214;47.454;18.966;2023-03-23T03:37:38;100095.08;;;3.23;77.28
77572;BME280;67214;47.454;18.966;2023-03-23T03:40:09;100095.48;;;3.15;77.32
77572;BME280;67214;47.454;18.966;2023-03-23T03:42:42;100100.27;;;3.16;77.76
77572;BME280;67214;47.454;18.966;2023-03-23T03:45:12;100102.95;;;3.14;77.63
77572;BME280;67214;47.454;18.966;2023-03-23T03:47:40;100100.49;;;3.11;77.61
77572;BME280;67214;47.454;18.966;2023-03-23T03:50:08;100103.57;;;3.11;77.39
77572;BME280;67214;47.454;18.966;2023-03-23T03:52:36;100108.28;;;3.13;77.44
77572;BME280;67214;47.454;18.966;2023-03-23T03:55:05;100109.83;;;3.08;77.53
77572;BME280;67214;47.454;18.966;2023-03-23T03:57:34;100108.06;;;3.09;77.58
77572;BME280;67214;47.454;18.966;2023-03-23T04:00:02;100112.73;;;3.19;77.20
77572;BME280;67214;47.454;18.966;2023-03-23T04:02:31;100114.67;;;3.07;77.28
77572;BME280;67214;47.454;18.966;2023-03-23T04:04:59;100116.14;;;3.04;77.18
77572;BME280;67214;47.454;18.966;2023-03-23T04:07:28;100118.77;;;2.96;77.38
77572;BME280;67214;47.454;18.966;2023-03-23T04:09:55;100122.30;;;2.95;77.75
77572;BME280;67214;47.454;18.966;2023-03-23T04:12:23;100122.14;;;2.98;77.55
77572;BME280;67214;47.454;18.966;2023-03-23T04:14:50;100119.52;;;2.98;77.62
77572;BME280;67214;47.454;18.966;2023-03-23T04:17:18;100121.38;;;2.96;77.61
77572;BME280;67214;47.454;18.966;2023-03-23T04:19:46;100117.22;;;2.92;77.82
77572;BME280;67214;47.454;18.966;2023-03-23T04:22:13;100123.31;;;2.92;77.81
77572;BME280;67214;47.454;18.966;2023-03-23T04:24:43;100121.77;;;2.88;77.88
77572;BME280;67214;47.454;18.966;2023-03-23T04:27:10;100129.06;;;2.90;77.84
77572;BME280;67214;47.454;18.966;2023-03-23T04:29:39;100126.84;;;2.91;77.83
77572;BME280;67214;47.454;18.966;2023-03-23T04:32:07;100124.45;;;2.87;77.93
77572;BME280;67214;47.454;18.966;2023-03-23T04:34:34;100114.06;;;2.85;78.03
77572;BME280;67214;47.454;18.966;2023-03-23T04:37:02;100121.38;;;2.96;77.43
77572;BME280;67214;47.454;18.966;2023-03-23T04:39:29;100128.22;;;2.98;77.19
77572;BME280;67214;47.454;18.966;2023-03-23T04:41:58;100126.69;;;3.03;77.24
77572;BME280;67214;47.454;18.966;2023-03-23T04:44:28;100116.44;;;3.07;77.15
77572;BME280;67214;47.454;18.966;2023-03-23T04:46:57;100114.05;;;3.02;77.11
77572;BME280;67214;47.454;18.966;2023-03-23T04:49:26;100118.99;;;3.00;77.26
77572;BME280;67214;47.454;18.966;2023-03-23T04:51:56;100117.39;;;2.97;77.28
77572;BME280;67214;47.454;18.966;2023-03-23T04:54:23;100121.22;;;2.99;77.47
77572;BME280;67214;47.454;18.966;2023-03-23T04:56:51;100108.45;;;3.01;77.42
77572;BME280;67214;47.454;18.966;2023-03-23T04:59:18;100118.67;;;3.06;77.35
77572;BME280;67214;47.454;18.966;2023-03-23T05:01:47;100119.84;;;3.09;77.10
77572;BME280;67214;47.454;18.966;2023-03-23T05:04:14;100121.68;;;3.07;77.31
77572;BME280;67214;47.454;18.966;2023-03-23T05:06:42;100131.41;;;3.05;77.47
77572;BME280;67214;47.454;18.966;2023-03-23T05:09:11;100122.70;;;3.13;77.45
77572;BME280;67214;47.454;18.966;2023-03-23T05:11:39;100127.15;;;3.11;77.57
77572;BME280;67214;47.454;18.966;2023-03-23T05:14:06;100129.70;;;3.12;77.68
77572;BME280;67214;47.454;18.966;2023-03-23T05:16:35;100123.91;;;3.14;77.60
77572;BME280;67214;47.454;18.966;2023-03-23T05:19:04;100124.53;;;3.19;77.41
77572;BME280;67214;47.454;18.966;2023-03-23T05:21:32;100126.98;;;3.40;76.95
77572;BME280;67214;47.454;18.966;2023-03-23T05:24:00;100117.86;;;3.47;76.49
77572;BME280;67214;47.454;18.966;2023-03-23T05:26:28;100130.50;;;3.56;76.40
77572;BME280;67214;47.454;18.966;2023-03-23T05:28:56;100132.58;;;3.66;75.97
77572;BME280;67214;47.454;18.966;2023-03-23T05:31:23;100125.97;;;3.75;75.75
77572;BME280;67214;47.454;18.966;2023-03-23T05:33:52;100132.14;;;3.83;75.74
77572;BME280;67214;47.454;18.966;2023-03-23T05:36:19;100131.03;;;3.95;75.55
77572;BME280;67214;47.454;18.966;2023-03-23T05:38:53;100135.05;;;4.09;74.75
77572;BME280;67214;47.454;18.966;2023-03-23T05:41:18;100119.05;;;4.14;74.45
77572;BME280;67214;47.454;18.966;2023-03-23T05:43:45;100129.48;;;4.15;74.60
77572;BME280;67214;47.454;18.966;2023-03-23T05:46:13;100122.17;;;4.20;74.48
77572;BME280;67214;47.454;18.966;2023-03-23T05:48:41;100120.83;;;4.29;74.46
77572;BME280;67214;47.454;18.966;2023-03-23T05:51:08;100115.00;;;4.40;74.19
77572;BME280;67214;47.454;18.966;2023-03-23T05:53:36;100123.97;;;4.51;73.69
77572;BME280;67214;47.454;18.966;2023-03-23T05:56:04;100123.78;;;4.54;73.46
77572;BME280;67214;47.454;18.966;2023-03-23T05:58:33;100120.91;;;4.59;73.58
77572;BME280;67214;47.454;18.966;2023-03-23T06:01:00;100114.82;;;4.65;73.44
77572;BME280;67214;47.454;18.966;2023-03-23T06:03:28;100116.47;;;4.75;73.12
77572;BME280;67214;47.454;18.966;2023-03-23T06:05:55;100115.95;;;4.84;72.97
77572;BME280;67214;47.454;18.966;2023-03-23T06:08:24;100120.03;;;4.97;72.90
77572;BME280;67214;47.454;18.966;2023-03-23T06:10:51;100114.25;;;5.13;73.26
77572;BME280;67214;47.454;18.966;2023-03-23T06:13:18;100113.15;;;5.38;73.19
77572;BME280;67214;47.454;18.966;2023-03-23T06:15:46;100113.36;;;5.71;72.39
77572;BME280;67214;47.454;18.966;2023-03-23T06:18:15;100109.62;;;5.96;71.67
77572;BME280;67214;47.454;18.966;2023-03-23T06:20:42;100109.97;;;6.25;71.19
77572;BME280;67214;47.454;18.966;2023-03-23T06:23:10;100105.98;;;6.66;70.22
77572;BME280;67214;47.454;18.966;2023-03-23T06:25:39;100095.52;;;6.91;69.75
77572;BME280;67214;47.454;18.966;2023-03-23T06:28:07;100095.25;;;7.09;69.22
77572;BME280;67214;47.454;18.966;2023-03-23T06:30:36;100099.97;;;7.36;68.84
77572;BME280;67214;47.454;18.966;2023-03-23T06:33:03;100091.69;;;7.60;68.24
77572;BME280;67214;47.454;18.966;2023-03-23T06:35:32;100101.00;;;7.84;67.38
77572;BME280;67214;47.454;18.966;2023-03-23T06:37:59;100083.17;;;8.06;66.25
77572;BME280;67214;47.454;18.966;2023-03-23T06:40:28;100096.98;;;8.27;65.87
77572;BME280;67214;47.454;18.966;2023-03-23T06:42:59;100095.00;;;8.49;65.48
77572;BME280;67214;47.454;18.966;2023-03-23T06:45:26;100102.45;;;8.73;63.88
77572;BME280;67214;47.454;18.966;2023-03-23T06:47:53;100096.42;;;9.01;64.44
77572;BME280;67214;47.454;18.966;2023-03-23T06:50:21;100097.22;;;9.19;63.90
77572;BME280;67214;47.454;18.966;2023-03-23T06:52:50;100102.92;;;9.43;62.68
77572;BME280;67214;47.454;18.966;2023-03-23T06:55:18;100099.47;;;9.64;62.63
77572;BME280;67214;47.454;18.966;2023-03-23T06:57:47;100103.69;;;9.84;61.71
77572;BME280;67214;47.454;18.966;2023-03-23T07:00:14;100105.75;;;10.02;60.90
77572;BME280;67214;47.454;18.966;2023-03-23T07:02:43;100104.67;;;10.16;60.73
77572;BME280;67214;47.454;18.966;2023-03-23T07:05:12;100106.70;;;10.29;59.66
77572;BME280;67214;47.454;18.966;2023-03-23T07:07:41;100103.19;;;10.40;59.03
77572;BME280;67214;47.454;18.966;2023-03-23T07:10:09;100105.17;;;10.64;58.41
77572;BME280;67214;47.454;18.966;2023-03-23T07:12:37;100112.00;;;10.83;58.53
77572;BME280;67214;47.454;18.966;2023-03-23T07:15:07;100099.27;;;10.98;58.15
77572;BME280;67214;47.454;18.966;2023-03-23T07:17:37;100106.45;;;11.12;57.47
77572;BME280;67214;47.454;18.966;2023-03-23T07:20:06;100111.80;;;11.28;57.64
77572;BME280;67214;47.454;18.966;2023-03-23T07:22:35;100109.89;;;11.45;56.84
77572;BME280;67214;47.454;18.966;2023-03-23T07:25:02;100116.39;;;11.61;56.59
77572;BME280;67214;47.454;18.966;2023-03-23T07:27:31;100115.08;;;11.82;54.91
77572;BME280;67214;47.454;18.966;2023-03-23T07:29:58;100117.20;;;12.03;55.44
77572;BME280;67214;47.454;18.966;2023-03-23T07:32:26;100117.17;;;12.09;54.81
77572;BME280;67214;47.454;18.966;2023-03-23T07:34:53;100119.92;;;12.23;55.51
77572;BME280;67214;47.454;18.966;2023-03-23T07:37:22;100126.77;;;12.31;55.13
77572;BME280;67214;47.454;18.966;2023-03-23T07:39:50;100114.36;;;12.50;54.61
77572;BME280;67214;47.454;18.966;2023-03-23T07:42:17;100121.58;;;12.64;53.72
77572;BME280;67214;47.454;18.966;2023-03-23T07:44:45;100126.23;;;12.71;53.87
77572;BME280;67214;47.454;18.966;2023-03-23T07:47:12;100128.61;;;12.84;52.48
77572;BME280;67214;47.454;18.966;2023-03-23T07:49:40;100128.42;;;12.91;52.73
77572;BME280;67214;47.454;18.966;2023-03-23T07:52:07;100129.06;;;12.98;52.99
77572;BME280;67214;47.454;18.966;2023-03-23T07:54:35;100130.45;;;13.02;51.94
77572;BME280;67214;47.454;18.966;2023-03-23T07:57:03;100135.61;;;13.19;51.75
77572;BME280;67214;47.454;18.966;2023-03-23T07:59:30;100116.68;;;13.32;51.23
77572;BME280;67214;47.454;18.966;2023-03-23T08:01:58;100119.43;;;13.59;50.30
77572;BME280;67214;47.454;18.966;2023-03-23T08:04:25;100124.14;;;13.61;51.29
77572;BME280;67214;47.454;18.966;2023-03-23T08:06:53;100122.29;;;13.62;50.56
77572;BME280;67214;47.454;18.966;2023-03-23T08:09:22;100124.82;;;13.86;49.90
77572;BME280;67214;47.454;18.966;2023-03-23T08:11:49;100126.43;;;14.07;50.53
77572;BME280;67214;47.454;18.966;2023-03-23T08:14:18;100120.19;;;14.25;48.12
77572;BME280;67214;47.454;18.966;2023-03-23T08:16:45;100124.06;;;14.40;47.96
77572;BME280;67214;47.454;18.966;2023-03-23T08:19:14;100126.62;;;14.60;47.92
77572;BME280;67214;47.454;18.966;2023-03-23T08:21:42;100124.52;;;14.81;48.85
77572;BME280;67214;47.454;18.966;2023-03-23T08:24:09;100126.05;;;15.01;46.66
77572;BME280;67214;47.454;18.966;2023-03-23T08:26:37;100128.69;;;14.97;46.86
77572;BME280;67214;47.454;18.966;2023-03-23T08:29:05;100131.27;;;15.24;45.62
77572;BME280;67214;47.454;18.966;2023-03-23T08:31:32;100130.55;;;15.36;44.86
77572;BME280;67214;47.454;18.966;2023-03-23T08:34:02;100133.47;;;15.47;44.55
77572;BME280;67214;47.454;18.966;2023-03-23T08:36:32;100133.64;;;15.49;44.84
77572;BME280;67214;47.454;18.966;2023-03-23T08:39:00;100131.06;;;15.57;44.74
77572;BME280;67214;47.454;18.966;2023-03-23T08:41:27;100136.59;;;15.86;44.98
77572;BME280;67214;47.454;18.966;2023-03-23T08:43:55;100130.47;;;15.89;44.79
77572;BME280;67214;47.454;18.966;2023-03-23T08:46:23;100136.75;;;15.80;43.87
77572;BME280;67214;47.454;18.966;2023-03-23T08:48:50;100138.95;;;15.85;44.02
77572;BME280;67214;47.454;18.966;2023-03-23T08:51:20;100133.26;;;15.84;44.04
77572;BME280;67214;47.454;18.966;2023-03-23T08:53:48;100132.84;;;15.96;44.33
77572;BME280;67214;47.454;18.966;2023-03-23T08:56:15;100136.76;;;16.14;43.84
77572;BME280;67214;47.454;18.966;2023-03-23T08:58:43;100134.13;;;16.18;44.18
77572;BME280;67214;47.454;18.966;2023-03-23T09:01:10;100127.19;;;16.37;43.81
77572;BME280;67214;47.454;18.966;2023-03-23T09:03:38;100128.80;;;16.64;43.96
77572;BME280;67214;47.454;18.966;2023-03-23T09:06:08;100133.14;;;16.57;42.49
77572;BME280;67214;47.454;18.966;2023-03-23T09:08:37;100128.55;;;16.83;43.99
77572;BME280;67214;47.454;18.966;2023-03-23T09:11:07;100127.23;;;16.99;42.53
77572;BME280;67214;47.454;18.966;2023-03-23T09:13:37;100127.40;;;17.14;43.51
77572;BME280;67214;47.454;18.966;2023-03-23T09:16:06;100128.41;;;17.41;42.90
77572;BME280;67214;47.454;18.966;2023-03-23T09:18:34;100121.05;;;17.72;42.15
77572;BME280;67214;47.454;18.966;2023-03-23T09:21:03;100119.20;;;17.72;40.98
77572;BME280;67214;47.454;18.966;2023-03-23T09:23:31;100121.55;;;17.47;41.38
77572;BME280;67214;47.454;18.966;2023-03-23T09:26:00;100115.20;;;17.60;42.73
77572;BME280;67214;47.454;18.966;2023-03-23T09:28:29;100122.55;;;17.38;41.34
77572;BME280;67214;47.454;18.966;2023-03-23T09:30:57;100115.50;;;17.29;42.54
77572;BME280;67214;47.454;18.966;2023-03-23T09:33:25;100115.33;;;17.54;41.96
77572;BME280;67214;47.454;18.966;2023-03-23T09:35:53;100115.33;;;17.79;41.63
77572;BME280;67214;47.454;18.966;2023-03-23T09:38:20;100114.58;;;18.13;40.71
77572;BME280;67214;47.454;18.966;2023-03-23T09:40:55;100112.50;;;18.27;40.75
77572;BME280;67214;47.454;18.966;2023-03-23T09:48:50;100107.02;;;18.17;41.03
77572;BME280;67214;47.454;18.966;2023-03-23T09:54:14;100096.70;;;18.98;40.50
77572;BME280;67214;47.454;18.966;2023-03-23T09:56:39;100084.64;;;19.35;40.03
77572;BME280;67214;47.454;18.966;2023-03-23T10:01:52;100088.16;;;19.73;38.50
77572;BME280;67214;47.454;18.966;2023-03-23T10:07:19;100092.47;;;19.41;38.86
77572;BME280;67214;47.454;18.966;2023-03-23T10:09:51;100094.16;;;19.61;38.64
77572;BME280;67214;47.454;18.966;2023-03-23T10:12:36;100082.00;;;19.83;38.42
77572;BME280;67214;47.454;18.966;2023-03-23T10:17:51;100068.22;;;19.68;39.56
77572;BME280;67214;47.454;18.966;2023-03-23T10:20:30;100072.30;;;19.78;38.27
77572;BME280;67214;47.454;18.966;2023-03-23T10:25:28;100050.84;;;20.14;37.88
77572;BME280;67214;47.454;18.966;2023-03-23T10:28:18;100060.23;;;20.33;38.15
77572;BME280;67214;47.454;18.966;2023-03-23T10:30:54;100047.17;;;20.40;37.35
77572;BME280;67214;47.454;18.966;2023-03-23T10:33:29;100049.53;;;20.39;37.77
77572;BME280;67214;47.454;18.966;2023-03-23T10:39:23;100044.13;;;20.29;38.59
77572;BME280;67214;47.454;18.966;2023-03-23T10:41:14;100038.31;;;20.21;38.02
77572;BME280;67214;47.454;18.966;2023-03-23T10:43:44;100029.69;;;20.22;37.93
77572;BME280;67214;47.454;18.966;2023-03-23T10:49:06;100034.05;;;19.98;38.28
77572;BME280;67214;47.454;18.966;2023-03-23T10:51:37;100026.75;;;20.02;38.50
77572;BME280;67214;47.454;18.966;2023-03-23T10:54:05;100017.44;;;20.09;37.94
77572;BME280;67214;47.454;18.966;2023-03-23T10:56:42;100022.11;;;20.11;38.08
77572;BME280;67214;47.454;18.966;2023-03-23T10:59:26;100017.16;;;20.04;38.01
77572;BME280;67214;47.454;18.966;2023-03-23T11:01:53;100030.74;;;20.06;38.76
77572;BME280;67214;47.454;18.966;2023-03-23T11:04:23;100026.75;;;20.02;37.78
77572;BME280;67214;47.454;18.966;2023-03-23T11:06:52;100033.16;;;20.16;36.62
77572;BME280;67214;47.454;18.966;2023-03-23T11:09:33;100030.45;;;20.30;37.42
77572;BME280;67214;47.454;18.966;2023-03-23T11:11:54;100027.71;;;20.70;36.39
77572;BME280;67214;47.454;18.966;2023-03-23T11:14:30;100022.67;;;20.99;35.65
77572;BME280;67214;47.454;18.966;2023-03-23T11:17:01;100014.88;;;21.15;35.90
77572;BME280;67214;47.454;18.966;2023-03-23T11:19:31;100006.04;;;21.55;36.18
77572;BME280;67214;47.454;18.966;2023-03-23T11:24:36;99998.48;;;21.61;33.40
77572;BME280;67214;47.454;18.966;2023-03-23T11:27:06;99997.64;;;21.61;34.78
77572;BME280;67214;47.454;18.966;2023-03-23T11:29:47;99990.85;;;21.37;34.19
77572;BME280;67214;47.454;18.966;2023-03-23T11:32:08;99981.48;;;21.33;34.21
77572;BME280;67214;47.454;18.966;2023-03-23T11:34:41;99998.41;;;21.20;34.38
77572;BME280;67214;47.454;18.966;2023-03-23T11:37:14;99991.73;;;21.06;34.72
77572;BME280;67214;47.454;18.966;2023-03-23T11:39:56;99991.13;;;20.82;34.43
77572;BME280;67214;47.454;18.966;2023-03-23T11:42:37;100004.80;;;20.70;35.11
77572;BME280;67214;47.454;18.966;2023-03-23T11:47:50;100003.45;;;20.34;36.16
77572;BME280;67214;47.454;18.966;2023-03-23T11:50:29;99996.61;;;20.32;36.67
77572;BME280;67214;47.454;18.966;2023-03-23T11:53:12;99990.80;;;20.24;36.46
77572;BME280;67214;47.454;18.966;2023-03-23T11:58:20;99991.61;;;20.50;35.97
77572;BME280;67214;47.454;18.966;2023-03-23T12:00:55;99981.09;;;20.76;35.18
77572;BME280;67214;47.454;18.966;2023-03-23T12:06:09;99970.63;;;21.71;33.85
77572;BME280;67214;47.454;18.966;2023-03-23T12:08:57;99970.78;;;22.35;34.19
77572;BME280;67214;47.454;18.966;2023-03-23T12:14:30;99963.33;;;23.06;31.97
77572;BME280;67214;47.454;18.966;2023-03-23T12:19:59;99951.11;;;23.46;31.26
77572;BME280;67214;47.454;18.966;2023-03-23T12:28:34;99942.01;;;23.56;30.94
77572;BME280;67214;47.454;18.966;2023-03-23T12:34:06;99938.59;;;23.80;31.18
77572;BME280;67214;47.454;18.966;2023-03-23T12:36:46;99929.75;;;23.82;30.42
77572;BME280;67214;47.454;18.966;2023-03-23T12:42:21;99920.06;;;23.84;30.69
77572;BME280;67214;47.454;18.966;2023-03-23T12:44:57;99924.69;;;23.22;31.12
77572;BME280;67214;47.454;18.966;2023-03-23T12:47:40;99920.27;;;23.53;31.41
77572;BME280;67214;47.454;18.966;2023-03-23T12:50:14;99920.14;;;23.86;30.55
77572;BME280;67214;47.454;18.966;2023-03-23T12:55:38;99911.05;;;24.34;30.22
77572;BME280;67214;47.454;18.966;2023-03-23T12:58:07;99912.06;;;24.80;29.38
77572;BME280;67214;47.454;18.966;2023-03-23T13:00:56;99897.68;;;25.05;29.33
77572;BME280;67214;47.454;18.966;2023-03-23T13:03:28;99910.08;;;25.37;28.29
77572;BME280;67214;47.454;18.966;2023-03-23T13:06:00;99901.28;;;25.78;28.64
77572;BME280;67214;47.454;18.966;2023-03-23T13:08:36;99900.75;;;25.69;28.04
77572;BME280;67214;47.454;18.966;2023-03-23T13:11:08;99901.47;;;26.04;28.17
77572;BME280;67214;47.454;18.966;2023-03-23T13:13:49;99889.38;;;26.39;27.42
77572;BME280;67214;47.454;18.966;2023-03-23T13:16:24;99889.38;;;26.39;27.42
77572;BME280;67214;47.454;18.966;2023-03-23T13:19:00;99907.48;;;27.21;26.32
77572;BME280;67214;47.454;18.966;2023-03-23T13:21:48;99902.75;;;27.05;26.10
77572;BME280;67214;47.454;18.966;2023-03-23T13:24:17;99903.55;;;27.52;26.85
77572;BME280;67214;47.454;18.966;2023-03-23T13:26:45;99902.80;;;27.68;25.64
77572;BME280;67214;47.454;18.966;2023-03-23T13:29:16;99889.28;;;28.72;24.38
77572;BME280;67214;47.454;18.966;2023-03-23T13:31:47;99895.41;;;28.98;24.72
77572;BME280;67214;47.454;18.966;2023-03-23T13:34:21;99890.09;;;29.25;23.97
77572;BME280;67214;47.454;18.966;2023-03-23T13:36:57;99885.27;;;29.13;24.37
77572;BME280;67214;47.454;18.966;2023-03-23T13:39:28;99890.14;;;28.75;24.52
77572;BME280;67214;47.454;18.966;2023-03-23T13:42:02;99893.68;;;27.74;25.02
77572;BME280;67214;47.454;18.966;2023-03-23T13:50:00;99875.44;;;29.15;23.91
77572;BME280;67214;47.454;18.966;2023-03-23T13:55:19;99866.59;;;29.27;23.86
77572;BME280;67214;47.454;18.966;2023-03-23T13:57:57;99874.48;;;29.83;23.34
77572;BME280;67214;47.454;18.966;2023-03-23T14:05:48;99868.97;;;30.03;23.05
77572;BME280;67214;47.454;18.966;2023-03-23T14:11:02;99869.19;;;30.25;23.11
77572;BME280;67214;47.454;18.966;2023-03-23T14:13:58;99862.20;;;29.64;23.16
77572;BME280;67214;47.454;18.966;2023-03-23T14:16:28;99861.83;;;29.80;23.34
77572;BME280;67214;47.454;18.966;2023-03-23T14:18:57;99865.90;;;28.17;24.90
77572;BME280;67214;47.454;18.966;2023-03-23T14:21:34;99864.16;;;26.52;26.65
77572;BME280;67214;47.454;18.966;2023-03-23T14:24:04;99867.17;;;25.64;28.47
77572;BME280;67214;47.454;18.966;2023-03-23T14:26:34;99863.28;;;25.89;28.40
77572;BME280;67214;47.454;18.966;2023-03-23T14:29:03;99862.94;;;25.40;28.30
77572;BME280;67214;47.454;18.966;2023-03-23T14:31:32;99869.17;;;23.70;30.04
77572;BME280;67214;47.454;18.966;2023-03-23T14:34:04;99871.66;;;23.36;31.05
77572;BME280;67214;47.454;18.966;2023-03-23T14:36:34;99852.94;;;22.93;31.84
77572;BME280;67214;47.454;18.966;2023-03-23T14:42:13;99856.79;;;22.75;32.01
77572;BME280;67214;47.454;18.966;2023-03-23T14:44:37;99873.52;;;22.41;32.78
77572;BME280;67214;47.454;18.966;2023-03-23T14:47:06;99867.81;;;22.53;32.60